Wetterdaten: aktuell Sonntag, 16.05.2021 23:30
Datum Zeit Temp. A. Feuchte A. Luftdruck Regen Wind Richtung Richtung Sonnenschein T Regen ET Solar Taupunkt Windchill Windben Empfang
16.05.2021 23:30 12,6 C 80 % 1004,1 hPa 0,0 l/m 6,9 km/h (2 Bft) S-SW 209 0 min 0 min 0,025 mm 0 W/m 9,2 C 12,3 C 14,5 km/h (3 Bft) 100 %
16.05.2021 22:30 12,1 C 82 % 1004,3 hPa 0,0 l/m 4,9 km/h (1 Bft) S-SO 161 0 min 0 min 0,025 mm 0 W/m 9,1 C 12,1 C 8,0 km/h (2 Bft) 100 %
16.05.2021 21:30 12,4 C 80 % 1004,7 hPa 0,0 l/m 5,4 km/h (1 Bft) S 169 0 min 0 min 0,026 mm 0 W/m 9,0 C 12,4 C 11,3 km/h (2 Bft) 99 %
16.05.2021 20:30 13,1 C 74 % 1005,0 hPa 0,0 l/m 5,5 km/h (1 Bft) S 169 15 min 0 min 0,051 mm 0 W/m 8,6 C 13,1 C 11,3 km/h (2 Bft) 99 %
16.05.2021 19:30 14,1 C 69 % 1005,2 hPa 0,0 l/m 3,1 km/h (1 Bft) SO 137 30 min 0 min 0,101 mm 41 W/m 8,5 C 14,1 C 8,0 km/h (2 Bft) 99 %
16.05.2021 18:30 15,2 C 62 % 1005,7 hPa 0,0 l/m 5,4 km/h (1 Bft) SW 216 0 min 0 min 0,076 mm 96 W/m 8,0 C 15,2 C 16,1 km/h (3 Bft) 100 %
16.05.2021 17:30 16,2 C 52 % 1005,7 hPa 0,0 l/m 5,3 km/h (1 Bft) S-SO 150 30 min 0 min 0,305 mm 63 W/m 6,3 C 16,2 C 16,1 km/h (3 Bft) 98 %
16.05.2021 16:30 18,8 C 47 % 1005,9 hPa 0,0 l/m 2,9 km/h (1 Bft) N 355 60 min 0 min 0,432 mm 570 W/m 7,2 C 18,8 C 8,0 km/h (2 Bft) 100 %
16.05.2021 15:30 17,8 C 51 % 1006,6 hPa 0,0 l/m 5,5 km/h (1 Bft) W-NW 294 60 min 0 min 0,483 mm 682 W/m 7,5 C 17,8 C 12,9 km/h (3 Bft) 100 %
16.05.2021 14:30 16,8 C 50 % 1007,4 hPa 0,0 l/m 7,5 km/h (2 Bft) W-NW 286 55 min 0 min 0,406 mm 781 W/m 6,3 C 16,2 C 17,7 km/h (3 Bft) 100 %
16.05.2021 13:30 15,2 C 57 % 1007,7 hPa 0,0 l/m 11,9 km/h (2 Bft) W-SW 247 50 min 0 min 0,457 mm 701 W/m 6,7 C 12,5 C 25,7 km/h (4 Bft) 100 %
16.05.2021 12:30 14,9 C 59 % 1008,0 hPa 0,0 l/m 10,5 km/h (2 Bft) NW 311 55 min 0 min 0,432 mm 938 W/m 7,0 C 12,8 C 25,7 km/h (4 Bft) 100 %
16.05.2021 11:30 13,2 C 63 % 1007,8 hPa 0,0 l/m 15,5 km/h (3 Bft) W 271 50 min 0 min 0,254 mm 875 W/m 6,3 C 8,8 C 35,4 km/h (5 Bft) 100 %
16.05.2021 10:30 11,2 C 73 % 1007,5 hPa 0,2 l/m 11,6 km/h (2 Bft) SW 229 45 min 5 min 0,305 mm 414 W/m 6,5 C 8,1 C 32,2 km/h (5 Bft) 100 %
16.05.2021 09:30 11,3 C 75 % 1007,0 hPa 0,0 l/m 10,7 km/h (2 Bft) W-NW 286 60 min 0 min 0,203 mm 671 W/m 7,0 C 8,7 C 29,0 km/h (5 Bft) 100 %
16.05.2021 08:30 9,4 C 81 % 1006,8 hPa 0,0 l/m 12,0 km/h (2 Bft) W 279 40 min 0 min 0,102 mm 274 W/m 6,3 C 5,8 C 27,4 km/h (4 Bft) 100 %
16.05.2021 07:30 8,6 C 86 % 1006,2 hPa 0,0 l/m 11,6 km/h (2 Bft) W-NW 283 0 min 0 min 0,025 mm 176 W/m 6,4 C 5,1 C 22,5 km/h (4 Bft) 99 %
16.05.2021 06:30 8,2 C 88 % 1005,9 hPa 0,0 l/m 13,1 km/h (3 Bft) SW 229 0 min 0 min 0,025 mm 41 W/m 6,3 C 3,9 C 32,2 km/h (5 Bft) 100 %
16.05.2021 05:30 8,2 C 87 % 1005,4 hPa 0,2 l/m 17,3 km/h (3 Bft) W 281 0 min 5 min 0,026 mm 0 W/m 6,2 C 2,0 C 40,2 km/h (6 Bft) 100 %
16.05.2021 04:30 9,0 C 85 % 1004,8 hPa 0,0 l/m 17,0 km/h (3 Bft) W-NW 286 0 min 0 min 0,025 mm 0 W/m 6,6 C 3,1 C 33,8 km/h (5 Bft) 100 %
16.05.2021 03:30 9,4 C 87 % 1004,5 hPa 0,0 l/m 19,1 km/h (3 Bft) W-NW 294 0 min 0 min 0,026 mm 0 W/m 7,3 C 2,8 C 40,2 km/h (6 Bft) 99 %
16.05.2021 02:30 9,9 C 88 % 1004,6 hPa 0,0 l/m 7,9 km/h (2 Bft) SW 229 0 min 0 min 0,000 mm 0 W/m 8,0 C 8,8 C 14,5 km/h (3 Bft) 99 %
16.05.2021 01:30 10,2 C 88 % 1004,3 hPa 0,0 l/m 0,7 km/h (0 Bft) S 175 0 min 0 min 0,025 mm 0 W/m 8,3 C 10,2 C 4,8 km/h (1 Bft) 100 %
16.05.2021 00:30 10,6 C 88 % 1004,2 hPa 0,0 l/m 7,3 km/h (2 Bft) S-SO 167 0 min 0 min 0,000 mm 0 W/m 8,7 C 10,0 C 16,1 km/h (3 Bft) 100 %
16.05.2021 00:00 10,7 C 88 % 1004,2 hPa 0,0 l/m 8,6 km/h (2 Bft) S-SO 155 0 min 0 min 0,000 mm 0 W/m 8,8 C 9,2 C 17,7 km/h (3 Bft) 99 %
_ Min-Zeit 05:10 16:40 00:45 - 01:30 - - - - - - 14:20 04:35 20:00 04:05
Minimum _ 8,1 C 44 % 1004,1 hPa - 0,7 km/h (0 Bft) - - - - - - 5,8 C 1,2 C 3,2 km/h (1 Bft) 5 %
_ Max-Zeit 16:50 00:00 11:55 05:10 04:35 - - 07:35 05:10 15:05 12:30 23:25 16:50 04:35 00:10
Maximum _ 19,3 C 88 % 1008,1 hPa 0,2 l/m 22,1 km/h
N-NW (4 Bft)
- - 5 min 5 min 0,483 mm 938 W/m 9,4 C 19,3 C 48,3 km/h
W (6 Bft)
100 %
Durchschnitt _ 12,5 C 73 % 1005,9 hPa #0,4 l/m 9,5 km/h (2 Bft) W-NW - #9:10 h #10 min. #3,835 mm 423 W/m 7,3 C 10,3 C 21,2 km/h (4 Bft) 99 %